sensor_id;sensor_type;location;lat;lon;timestamp;P1;durP1;ratioP1;P2;durP2;ratioP2
10418;SDS011;5256;48.728;9.140;2023-03-21T00:01:02;0.40;;;0.40;;
10418;SDS011;5256;48.728;9.140;2023-03-21T00:03:28;0.50;;;0.50;;
10418;SDS011;5256;48.728;9.140;2023-03-21T00:05:55;0.70;;;0.70;;
10418;SDS011;5256;48.728;9.140;2023-03-21T00:08:21;0.60;;;0.60;;
10418;SDS011;5256;48.728;9.140;2023-03-21T00:10:54;0.50;;;0.50;;
10418;SDS011;5256;48.728;9.140;2023-03-21T00:13:24;0.60;;;0.60;;
10418;SDS011;5256;48.728;9.140;2023-03-21T00:15:52;0.60;;;0.60;;
10418;SDS011;5256;48.728;9.140;2023-03-21T00:18:21;0.40;;;0.40;;
10418;SDS011;5256;48.728;9.140;2023-03-21T00:21:00;0.60;;;0.60;;
10418;SDS011;5256;48.728;9.140;2023-03-21T00:23:28;0.50;;;0.50;;
10418;SDS011;5256;48.728;9.140;2023-03-21T00:25:55;0.60;;;0.60;;
10418;SDS011;5256;48.728;9.140;2023-03-21T00:28:21;0.50;;;0.50;;
10418;SDS011;5256;48.728;9.140;2023-03-21T00:30:47;0.60;;;0.60;;
10418;SDS011;5256;48.728;9.140;2023-03-21T00:33:13;0.70;;;0.70;;
10418;SDS011;5256;48.728;9.140;2023-03-21T00:35:39;0.50;;;0.50;;
10418;SDS011;5256;48.728;9.140;2023-03-21T00:38:09;0.60;;;0.60;;
10418;SDS011;5256;48.728;9.140;2023-03-21T00:40:35;0.50;;;0.50;;
10418;SDS011;5256;48.728;9.140;2023-03-21T00:43:00;0.60;;;0.60;;
10418;SDS011;5256;48.728;9.140;2023-03-21T00:45:26;0.50;;;0.50;;
10418;SDS011;5256;48.728;9.140;2023-03-21T00:47:51;0.40;;;0.40;;
10418;SDS011;5256;48.728;9.140;2023-03-21T00:50:17;0.43;;;0.43;;
10418;SDS011;5256;48.728;9.140;2023-03-21T00:52:43;0.60;;;0.60;;
10418;SDS011;5256;48.728;9.140;2023-03-21T00:55:11;0.50;;;0.50;;
10418;SDS011;5256;48.728;9.140;2023-03-21T00:57:39;0.43;;;0.43;;
10418;SDS011;5256;48.728;9.140;2023-03-21T01:00:05;0.50;;;0.50;;
10418;SDS011;5256;48.728;9.140;2023-03-21T01:02:33;0.40;;;0.40;;
10418;SDS011;5256;48.728;9.140;2023-03-21T01:04:59;0.60;;;0.60;;
10418;SDS011;5256;48.728;9.140;2023-03-21T01:07:24;0.60;;;0.60;;
10418;SDS011;5256;48.728;9.140;2023-03-21T01:09:50;0.53;;;0.53;;
10418;SDS011;5256;48.728;9.140;2023-03-21T01:12:15;0.40;;;0.40;;
10418;SDS011;5256;48.728;9.140;2023-03-21T01:14:41;0.50;;;0.50;;
10418;SDS011;5256;48.728;9.140;2023-03-21T01:17:06;0.50;;;0.50;;
10418;SDS011;5256;48.728;9.140;2023-03-21T01:19:32;0.47;;;0.47;;
10418;SDS011;5256;48.728;9.140;2023-03-21T01:21:58;0.50;;;0.50;;
10418;SDS011;5256;48.728;9.140;2023-03-21T01:24:23;0.50;;;0.50;;
10418;SDS011;5256;48.728;9.140;2023-03-21T01:26:49;0.40;;;0.40;;
10418;SDS011;5256;48.728;9.140;2023-03-21T01:29:14;0.50;;;0.50;;
10418;SDS011;5256;48.728;9.140;2023-03-21T01:31:40;0.40;;;0.40;;
10418;SDS011;5256;48.728;9.140;2023-03-21T01:34:06;0.40;;;0.40;;
10418;SDS011;5256;48.728;9.140;2023-03-21T01:36:32;0.60;;;0.60;;
10418;SDS011;5256;48.728;9.140;2023-03-21T01:38:57;0.43;;;0.43;;
10418;SDS011;5256;48.728;9.140;2023-03-21T01:43:51;0.60;;;0.60;;
10418;SDS011;5256;48.728;9.140;2023-03-21T01:48:47;0.50;;;0.50;;
10418;SDS011;5256;48.728;9.140;2023-03-21T01:51:19;0.50;;;0.50;;
10418;SDS011;5256;48.728;9.140;2023-03-21T01:53:46;0.60;;;0.60;;
10418;SDS011;5256;48.728;9.140;2023-03-21T01:56:21;0.50;;;0.50;;
10418;SDS011;5256;48.728;9.140;2023-03-21T01:58:50;0.60;;;0.60;;
10418;SDS011;5256;48.728;9.140;2023-03-21T02:01:19;0.57;;;0.57;;
10418;SDS011;5256;48.728;9.140;2023-03-21T02:03:47;0.60;;;0.60;;
10418;SDS011;5256;48.728;9.140;2023-03-21T02:06:14;0.50;;;0.50;;
10418;SDS011;5256;48.728;9.140;2023-03-21T02:08:46;0.40;;;0.40;;
10418;SDS011;5256;48.728;9.140;2023-03-21T02:11:12;0.50;;;0.50;;
10418;SDS011;5256;48.728;9.140;2023-03-21T02:13:38;0.40;;;0.40;;
10418;SDS011;5256;48.728;9.140;2023-03-21T02:16:17;0.50;;;0.50;;
10418;SDS011;5256;48.728;9.140;2023-03-21T02:21:31;0.43;;;0.43;;
10418;SDS011;5256;48.728;9.140;2023-03-21T02:24:15;0.40;;;0.40;;
10418;SDS011;5256;48.728;9.140;2023-03-21T02:32:35;0.50;;;0.50;;
10418;SDS011;5256;48.728;9.140;2023-03-21T02:35:27;0.50;;;0.50;;
10418;SDS011;5256;48.728;9.140;2023-03-21T02:38:08;0.60;;;0.60;;
10418;SDS011;5256;48.728;9.140;2023-03-21T02:48:40;0.60;;;0.60;;
10418;SDS011;5256;48.728;9.140;2023-03-21T02:51:11;0.53;;;0.53;;
10418;SDS011;5256;48.728;9.140;2023-03-21T02:53:44;0.50;;;0.50;;
10418;SDS011;5256;48.728;9.140;2023-03-21T02:56:13;0.40;;;0.40;;
10418;SDS011;5256;48.728;9.140;2023-03-21T02:58:39;0.60;;;0.60;;
10418;SDS011;5256;48.728;9.140;2023-03-21T03:01:06;0.60;;;0.60;;
10418;SDS011;5256;48.728;9.140;2023-03-21T03:03:33;0.60;;;0.60;;
10418;SDS011;5256;48.728;9.140;2023-03-21T03:06:03;0.50;;;0.50;;
10418;SDS011;5256;48.728;9.140;2023-03-21T03:11:40;0.50;;;0.50;;
10418;SDS011;5256;48.728;9.140;2023-03-21T03:26:02;0.50;;;0.50;;
10418;SDS011;5256;48.728;9.140;2023-03-21T03:28:25;0.50;;;0.50;;
10418;SDS011;5256;48.728;9.140;2023-03-21T03:30:54;0.50;;;0.50;;
10418;SDS011;5256;48.728;9.140;2023-03-21T03:33:21;0.50;;;0.50;;
10418;SDS011;5256;48.728;9.140;2023-03-21T03:35:50;0.70;;;0.70;;
10418;SDS011;5256;48.728;9.140;2023-03-21T03:38:19;0.60;;;0.60;;
10418;SDS011;5256;48.728;9.140;2023-03-21T03:40:48;0.60;;;0.60;;
10418;SDS011;5256;48.728;9.140;2023-03-21T03:43:22;0.50;;;0.50;;
10418;SDS011;5256;48.728;9.140;2023-03-21T03:45:55;0.50;;;0.50;;
10418;SDS011;5256;48.728;9.140;2023-03-21T03:48:31;0.60;;;0.60;;
10418;SDS011;5256;48.728;9.140;2023-03-21T03:51:00;0.60;;;0.60;;
10418;SDS011;5256;48.728;9.140;2023-03-21T03:56:02;0.50;;;0.50;;
10418;SDS011;5256;48.728;9.140;2023-03-21T03:58:31;0.60;;;0.60;;
10418;SDS011;5256;48.728;9.140;2023-03-21T04:00:59;0.50;;;0.50;;
10418;SDS011;5256;48.728;9.140;2023-03-21T04:03:24;0.70;;;0.70;;
10418;SDS011;5256;48.728;9.140;2023-03-21T04:05:50;0.57;;;0.57;;
10418;SDS011;5256;48.728;9.140;2023-03-21T04:08:15;0.50;;;0.50;;
10418;SDS011;5256;48.728;9.140;2023-03-21T04:10:42;0.40;;;0.40;;
10418;SDS011;5256;48.728;9.140;2023-03-21T04:13:07;0.60;;;0.60;;
10418;SDS011;5256;48.728;9.140;2023-03-21T04:15:33;0.60;;;0.60;;
10418;SDS011;5256;48.728;9.140;2023-03-21T04:17:59;0.60;;;0.60;;
10418;SDS011;5256;48.728;9.140;2023-03-21T04:20:25;0.60;;;0.60;;
10418;SDS011;5256;48.728;9.140;2023-03-21T04:22:51;0.60;;;0.60;;
10418;SDS011;5256;48.728;9.140;2023-03-21T04:25:18;0.60;;;0.60;;
10418;SDS011;5256;48.728;9.140;2023-03-21T04:27:44;0.60;;;0.60;;
10418;SDS011;5256;48.728;9.140;2023-03-21T04:30:10;0.50;;;0.50;;
10418;SDS011;5256;48.728;9.140;2023-03-21T04:32:36;0.60;;;0.60;;
10418;SDS011;5256;48.728;9.140;2023-03-21T04:35:04;0.50;;;0.50;;
10418;SDS011;5256;48.728;9.140;2023-03-21T04:37:30;0.60;;;0.60;;
10418;SDS011;5256;48.728;9.140;2023-03-21T04:39:58;0.63;;;0.63;;
10418;SDS011;5256;48.728;9.140;2023-03-21T04:42:23;0.60;;;0.60;;
10418;SDS011;5256;48.728;9.140;2023-03-21T04:44:49;0.57;;;0.57;;
10418;SDS011;5256;48.728;9.140;2023-03-21T04:47:15;0.50;;;0.50;;
10418;SDS011;5256;48.728;9.140;2023-03-21T04:49:44;0.67;;;0.67;;
10418;SDS011;5256;48.728;9.140;2023-03-21T04:52:11;0.60;;;0.60;;
10418;SDS011;5256;48.728;9.140;2023-03-21T04:54:38;0.70;;;0.70;;
10418;SDS011;5256;48.728;9.140;2023-03-21T04:57:03;0.60;;;0.60;;
10418;SDS011;5256;48.728;9.140;2023-03-21T04:59:29;0.53;;;0.53;;
10418;SDS011;5256;48.728;9.140;2023-03-21T05:01:55;0.60;;;0.60;;
10418;SDS011;5256;48.728;9.140;2023-03-21T05:04:22;0.70;;;0.70;;
10418;SDS011;5256;48.728;9.140;2023-03-21T05:06:50;0.70;;;0.70;;
10418;SDS011;5256;48.728;9.140;2023-03-21T05:09:15;0.50;;;0.50;;
10418;SDS011;5256;48.728;9.140;2023-03-21T05:11:41;0.60;;;0.60;;
10418;SDS011;5256;48.728;9.140;2023-03-21T05:14:08;0.50;;;0.50;;
10418;SDS011;5256;48.728;9.140;2023-03-21T05:16:35;0.63;;;0.63;;
10418;SDS011;5256;48.728;9.140;2023-03-21T05:19:12;0.53;;;0.53;;
10418;SDS011;5256;48.728;9.140;2023-03-21T05:21:39;0.50;;;0.50;;
10418;SDS011;5256;48.728;9.140;2023-03-21T05:24:10;0.73;;;0.73;;
10418;SDS011;5256;48.728;9.140;2023-03-21T05:26:39;0.60;;;0.60;;
10418;SDS011;5256;48.728;9.140;2023-03-21T05:29:05;0.60;;;0.60;;
10418;SDS011;5256;48.728;9.140;2023-03-21T05:31:31;0.70;;;0.70;;
10418;SDS011;5256;48.728;9.140;2023-03-21T05:33:56;0.60;;;0.60;;
10418;SDS011;5256;48.728;9.140;2023-03-21T05:36:22;0.60;;;0.60;;
10418;SDS011;5256;48.728;9.140;2023-03-21T05:38:48;0.60;;;0.60;;
10418;SDS011;5256;48.728;9.140;2023-03-21T05:41:14;0.60;;;0.60;;
10418;SDS011;5256;48.728;9.140;2023-03-21T05:43:41;0.50;;;0.50;;
10418;SDS011;5256;48.728;9.140;2023-03-21T05:46:07;0.60;;;0.60;;
10418;SDS011;5256;48.728;9.140;2023-03-21T05:48:33;0.50;;;0.50;;
10418;SDS011;5256;48.728;9.140;2023-03-21T05:50:59;0.60;;;0.60;;
10418;SDS011;5256;48.728;9.140;2023-03-21T05:53:25;0.73;;;0.73;;
10418;SDS011;5256;48.728;9.140;2023-03-21T05:55:51;0.60;;;0.60;;
10418;SDS011;5256;48.728;9.140;2023-03-21T05:58:16;0.60;;;0.60;;
10418;SDS011;5256;48.728;9.140;2023-03-21T06:00:42;0.60;;;0.60;;
10418;SDS011;5256;48.728;9.140;2023-03-21T06:03:08;0.60;;;0.60;;
10418;SDS011;5256;48.728;9.140;2023-03-21T06:05:33;0.70;;;0.70;;
10418;SDS011;5256;48.728;9.140;2023-03-21T06:07:59;0.70;;;0.70;;
10418;SDS011;5256;48.728;9.140;2023-03-21T06:10:24;0.60;;;0.60;;
10418;SDS011;5256;48.728;9.140;2023-03-21T06:12:50;0.60;;;0.60;;
10418;SDS011;5256;48.728;9.140;2023-03-21T06:15:15;0.60;;;0.60;;
10418;SDS011;5256;48.728;9.140;2023-03-21T06:17:41;0.60;;;0.60;;
10418;SDS011;5256;48.728;9.140;2023-03-21T06:20:07;0.60;;;0.60;;
10418;SDS011;5256;48.728;9.140;2023-03-21T06:22:33;0.60;;;0.60;;
10418;SDS011;5256;48.728;9.140;2023-03-21T06:24:59;0.60;;;0.60;;
10418;SDS011;5256;48.728;9.140;2023-03-21T06:27:25;0.70;;;0.70;;
10418;SDS011;5256;48.728;9.140;2023-03-21T06:29:51;0.60;;;0.60;;
10418;SDS011;5256;48.728;9.140;2023-03-21T06:32:16;0.60;;;0.60;;
10418;SDS011;5256;48.728;9.140;2023-03-21T06:34:42;0.70;;;0.70;;
10418;SDS011;5256;48.728;9.140;2023-03-21T06:37:08;0.50;;;0.50;;
10418;SDS011;5256;48.728;9.140;2023-03-21T06:39:34;0.50;;;0.50;;
10418;SDS011;5256;48.728;9.140;2023-03-21T06:41:59;0.60;;;0.60;;
10418;SDS011;5256;48.728;9.140;2023-03-21T06:44:25;0.50;;;0.50;;
10418;SDS011;5256;48.728;9.140;2023-03-21T06:46:51;0.70;;;0.70;;
10418;SDS011;5256;48.728;9.140;2023-03-21T06:49:17;0.53;;;0.53;;
10418;SDS011;5256;48.728;9.140;2023-03-21T06:51:43;0.57;;;0.57;;
10418;SDS011;5256;48.728;9.140;2023-03-21T06:54:10;0.60;;;0.60;;
10418;SDS011;5256;48.728;9.140;2023-03-21T06:56:37;0.50;;;0.50;;
10418;SDS011;5256;48.728;9.140;2023-03-21T06:59:03;0.50;;;0.50;;
10418;SDS011;5256;48.728;9.140;2023-03-21T07:01:28;0.50;;;0.50;;
10418;SDS011;5256;48.728;9.140;2023-03-21T07:03:55;0.50;;;0.50;;
10418;SDS011;5256;48.728;9.140;2023-03-21T07:06:23;0.50;;;0.50;;
10418;SDS011;5256;48.728;9.140;2023-03-21T07:08:53;0.50;;;0.50;;
10418;SDS011;5256;48.728;9.140;2023-03-21T07:11:19;0.50;;;0.50;;
10418;SDS011;5256;48.728;9.140;2023-03-21T07:13:45;0.40;;;0.40;;
10418;SDS011;5256;48.728;9.140;2023-03-21T07:16:12;0.50;;;0.50;;
10418;SDS011;5256;48.728;9.140;2023-03-21T07:18:39;0.40;;;0.40;;
10418;SDS011;5256;48.728;9.140;2023-03-21T07:21:05;0.60;;;0.60;;
10418;SDS011;5256;48.728;9.140;2023-03-21T07:23:31;0.50;;;0.50;;
10418;SDS011;5256;48.728;9.140;2023-03-21T07:25:56;0.40;;;0.40;;
10418;SDS011;5256;48.728;9.140;2023-03-21T07:28:22;0.40;;;0.40;;
10418;SDS011;5256;48.728;9.140;2023-03-21T07:30:55;0.50;;;0.50;;
10418;SDS011;5256;48.728;9.140;2023-03-21T07:33:23;0.40;;;0.40;;
10418;SDS011;5256;48.728;9.140;2023-03-21T07:35:49;0.50;;;0.50;;
10418;SDS011;5256;48.728;9.140;2023-03-21T07:38:16;0.30;;;0.30;;
10418;SDS011;5256;48.728;9.140;2023-03-21T07:40:43;0.30;;;0.30;;
10418;SDS011;5256;48.728;9.140;2023-03-21T07:43:10;0.40;;;0.40;;
10418;SDS011;5256;48.728;9.140;2023-03-21T07:45:37;0.37;;;0.37;;
10418;SDS011;5256;48.728;9.140;2023-03-21T07:48:03;0.40;;;0.40;;
10418;SDS011;5256;48.728;9.140;2023-03-21T07:50:29;0.40;;;0.40;;
10418;SDS011;5256;48.728;9.140;2023-03-21T07:52:58;0.33;;;0.33;;
10418;SDS011;5256;48.728;9.140;2023-03-21T07:55:30;0.30;;;0.30;;
10418;SDS011;5256;48.728;9.140;2023-03-21T07:57:59;0.30;;;0.30;;
10418;SDS011;5256;48.728;9.140;2023-03-21T08:00:26;0.40;;;0.40;;
10418;SDS011;5256;48.728;9.140;2023-03-21T08:02:55;0.40;;;0.40;;
10418;SDS011;5256;48.728;9.140;2023-03-21T08:05:22;0.43;;;0.43;;
10418;SDS011;5256;48.728;9.140;2023-03-21T08:07:50;0.40;;;0.40;;
10418;SDS011;5256;48.728;9.140;2023-03-21T08:10:16;0.40;;;0.40;;
10418;SDS011;5256;48.728;9.140;2023-03-21T08:12:43;0.47;;;0.47;;
10418;SDS011;5256;48.728;9.140;2023-03-21T08:15:09;0.40;;;0.40;;
10418;SDS011;5256;48.728;9.140;2023-03-21T08:17:36;0.37;;;0.37;;
10418;SDS011;5256;48.728;9.140;2023-03-21T08:20:04;0.40;;;0.40;;
10418;SDS011;5256;48.728;9.140;2023-03-21T08:22:35;0.50;;;0.50;;
10418;SDS011;5256;48.728;9.140;2023-03-21T08:25:05;0.50;;;0.50;;
10418;SDS011;5256;48.728;9.140;2023-03-21T08:27:32;0.40;;;0.40;;
10418;SDS011;5256;48.728;9.140;2023-03-21T08:29:59;0.30;;;0.30;;
10418;SDS011;5256;48.728;9.140;2023-03-21T08:32:24;0.40;;;0.40;;
10418;SDS011;5256;48.728;9.140;2023-03-21T08:35:02;0.30;;;0.30;;
10418;SDS011;5256;48.728;9.140;2023-03-21T08:37:29;0.50;;;0.50;;
10418;SDS011;5256;48.728;9.140;2023-03-21T08:39:55;0.40;;;0.40;;
10418;SDS011;5256;48.728;9.140;2023-03-21T08:42:22;0.40;;;0.40;;
10418;SDS011;5256;48.728;9.140;2023-03-21T08:44:48;0.30;;;0.30;;
10418;SDS011;5256;48.728;9.140;2023-03-21T08:47:14;0.50;;;0.50;;
10418;SDS011;5256;48.728;9.140;2023-03-21T08:49:40;0.50;;;0.50;;
10418;SDS011;5256;48.728;9.140;2023-03-21T08:52:06;0.40;;;0.40;;
10418;SDS011;5256;48.728;9.140;2023-03-21T08:54:32;0.30;;;0.30;;
10418;SDS011;5256;48.728;9.140;2023-03-21T08:56:58;0.33;;;0.33;;
10418;SDS011;5256;48.728;9.140;2023-03-21T08:59:23;0.30;;;0.30;;
10418;SDS011;5256;48.728;9.140;2023-03-21T09:01:49;0.30;;;0.30;;
10418;SDS011;5256;48.728;9.140;2023-03-21T09:04:16;0.40;;;0.40;;
10418;SDS011;5256;48.728;9.140;2023-03-21T09:06:43;0.40;;;0.40;;
10418;SDS011;5256;48.728;9.140;2023-03-21T09:09:13;0.37;;;0.37;;
10418;SDS011;5256;48.728;9.140;2023-03-21T09:11:40;0.20;;;0.20;;
10418;SDS011;5256;48.728;9.140;2023-03-21T09:14:06;0.40;;;0.40;;
10418;SDS011;5256;48.728;9.140;2023-03-21T09:16:32;0.30;;;0.30;;
10418;SDS011;5256;48.728;9.140;2023-03-21T09:18:57;0.30;;;0.30;;
10418;SDS011;5256;48.728;9.140;2023-03-21T09:21:24;0.30;;;0.30;;
10418;SDS011;5256;48.728;9.140;2023-03-21T09:23:51;0.30;;;0.30;;
10418;SDS011;5256;48.728;9.140;2023-03-21T09:26:19;0.30;;;0.30;;
10418;SDS011;5256;48.728;9.140;2023-03-21T09:28:45;0.30;;;0.30;;
10418;SDS011;5256;48.728;9.140;2023-03-21T09:31:12;0.30;;;0.30;;
10418;SDS011;5256;48.728;9.140;2023-03-21T09:33:40;0.30;;;0.30;;
10418;SDS011;5256;48.728;9.140;2023-03-21T09:36:06;0.30;;;0.30;;
10418;SDS011;5256;48.728;9.140;2023-03-21T09:38:42;0.40;;;0.40;;
10418;SDS011;5256;48.728;9.140;2023-03-21T09:47:08;0.40;;;0.40;;
10418;SDS011;5256;48.728;9.140;2023-03-21T09:49:56;0.30;;;0.30;;
10418;SDS011;5256;48.728;9.140;2023-03-21T09:52:34;0.40;;;0.40;;
10418;SDS011;5256;48.728;9.140;2023-03-21T09:55:18;0.30;;;0.30;;
10418;SDS011;5256;48.728;9.140;2023-03-21T09:57:47;0.30;;;0.30;;
10418;SDS011;5256;48.728;9.140;2023-03-21T10:00:27;0.30;;;0.30;;
10418;SDS011;5256;48.728;9.140;2023-03-21T10:03:00;0.40;;;0.40;;
10418;SDS011;5256;48.728;9.140;2023-03-21T10:05:31;0.30;;;0.30;;
10418;SDS011;5256;48.728;9.140;2023-03-21T10:08:01;0.30;;;0.30;;
10418;SDS011;5256;48.728;9.140;2023-03-21T10:10:47;0.37;;;0.37;;
10418;SDS011;5256;48.728;9.140;2023-03-21T10:13:24;0.40;;;0.40;;
10418;SDS011;5256;48.728;9.140;2023-03-21T10:15:56;0.50;;;0.50;;
10418;SDS011;5256;48.728;9.140;2023-03-21T10:18:25;0.40;;;0.40;;
10418;SDS011;5256;48.728;9.140;2023-03-21T10:20:53;0.40;;;0.40;;
10418;SDS011;5256;48.728;9.140;2023-03-21T10:23:20;0.50;;;0.50;;
10418;SDS011;5256;48.728;9.140;2023-03-21T10:26:00;0.40;;;0.40;;
10418;SDS011;5256;48.728;9.140;2023-03-21T10:28:32;0.40;;;0.40;;
10418;SDS011;5256;48.728;9.140;2023-03-21T10:31:02;0.30;;;0.30;;
10418;SDS011;5256;48.728;9.140;2023-03-21T10:33:40;0.70;;;0.70;;
10418;SDS011;5256;48.728;9.140;2023-03-21T10:36:09;0.40;;;0.40;;
10418;SDS011;5256;48.728;9.140;2023-03-21T10:38:43;0.40;;;0.40;;
10418;SDS011;5256;48.728;9.140;2023-03-21T10:41:13;0.40;;;0.40;;
10418;SDS011;5256;48.728;9.140;2023-03-21T10:43:40;0.40;;;0.40;;
10418;SDS011;5256;48.728;9.140;2023-03-21T10:46:08;0.43;;;0.43;;
10418;SDS011;5256;48.728;9.140;2023-03-21T10:48:39;0.40;;;0.40;;
10418;SDS011;5256;48.728;9.140;2023-03-21T10:51:13;0.40;;;0.40;;
10418;SDS011;5256;48.728;9.140;2023-03-21T10:53:50;0.30;;;0.30;;
10418;SDS011;5256;48.728;9.140;2023-03-21T10:56:25;0.37;;;0.37;;
10418;SDS011;5256;48.728;9.140;2023-03-21T10:58:52;0.30;;;0.30;;
10418;SDS011;5256;48.728;9.140;2023-03-21T11:01:28;0.43;;;0.43;;
10418;SDS011;5256;48.728;9.140;2023-03-21T11:04:14;0.40;;;0.40;;
10418;SDS011;5256;48.728;9.140;2023-03-21T11:06:50;0.40;;;0.40;;
10418;SDS011;5256;48.728;9.140;2023-03-21T11:09:19;0.30;;;0.30;;
10418;SDS011;5256;48.728;9.140;2023-03-21T11:12:02;0.40;;;0.40;;
10418;SDS011;5256;48.728;9.140;2023-03-21T11:14:39;0.40;;;0.40;;
10418;SDS011;5256;48.728;9.140;2023-03-21T11:19:45;0.30;;;0.30;;
10418;SDS011;5256;48.728;9.140;2023-03-21T11:22:12;0.50;;;0.50;;
10418;SDS011;5256;48.728;9.140;2023-03-21T11:24:39;0.30;;;0.30;;
10418;SDS011;5256;48.728;9.140;2023-03-21T11:27:07;0.20;;;0.20;;
10418;SDS011;5256;48.728;9.140;2023-03-21T11:29:37;0.40;;;0.40;;
10418;SDS011;5256;48.728;9.140;2023-03-21T11:32:11;0.40;;;0.40;;
10418;SDS011;5256;48.728;9.140;2023-03-21T11:34:48;0.30;;;0.30;;
10418;SDS011;5256;48.728;9.140;2023-03-21T11:40:18;0.30;;;0.30;;
10418;SDS011;5256;48.728;9.140;2023-03-21T11:42:45;0.30;;;0.30;;
10418;SDS011;5256;48.728;9.140;2023-03-21T11:45:21;0.20;;;0.20;;
10418;SDS011;5256;48.728;9.140;2023-03-21T11:47:55;0.30;;;0.30;;
10418;SDS011;5256;48.728;9.140;2023-03-21T11:50:33;0.30;;;0.30;;
10418;SDS011;5256;48.728;9.140;2023-03-21T11:55:51;0.30;;;0.30;;
10418;SDS011;5256;48.728;9.140;2023-03-21T11:58:22;0.40;;;0.40;;
10418;SDS011;5256;48.728;9.140;2023-03-21T12:04:24;0.30;;;0.30;;
10418;SDS011;5256;48.728;9.140;2023-03-21T12:06:52;0.30;;;0.30;;
10418;SDS011;5256;48.728;9.140;2023-03-21T12:39:31;0.40;;;0.40;;
10418;SDS011;5256;48.728;9.140;2023-03-21T12:42:04;0.33;;;0.33;;
10418;SDS011;5256;48.728;9.140;2023-03-21T12:44:38;0.30;;;0.30;;
10418;SDS011;5256;48.728;9.140;2023-03-21T12:47:09;0.40;;;0.40;;
10418;SDS011;5256;48.728;9.140;2023-03-21T12:54:49;0.30;;;0.30;;
10418;SDS011;5256;48.728;9.140;2023-03-21T12:57:31;0.37;;;0.37;;
10418;SDS011;5256;48.728;9.140;2023-03-21T13:00:04;0.30;;;0.30;;
10418;SDS011;5256;48.728;9.140;2023-03-21T13:02:41;0.30;;;0.30;;
10418;SDS011;5256;48.728;9.140;2023-03-21T13:05:19;0.20;;;0.20;;
10418;SDS011;5256;48.728;9.140;2023-03-21T13:08:05;0.30;;;0.30;;
10418;SDS011;5256;48.728;9.140;2023-03-21T13:10:42;0.30;;;0.30;;
10418;SDS011;5256;48.728;9.140;2023-03-21T13:15:46;0.30;;;0.30;;
10418;SDS011;5256;48.728;9.140;2023-03-21T13:18:17;0.30;;;0.30;;
10418;SDS011;5256;48.728;9.140;2023-03-21T13:20:55;0.30;;;0.30;;
10418;SDS011;5256;48.728;9.140;2023-03-21T13:23:24;0.30;;;0.30;;
10418;SDS011;5256;48.728;9.140;2023-03-21T13:26:00;0.30;;;0.30;;
10418;SDS011;5256;48.728;9.140;2023-03-21T13:28:27;0.30;;;0.30;;
10418;SDS011;5256;48.728;9.140;2023-03-21T13:31:13;0.30;;;0.30;;
10418;SDS011;5256;48.728;9.140;2023-03-21T13:33:50;0.30;;;0.30;;
10418;SDS011;5256;48.728;9.140;2023-03-21T13:36:25;0.40;;;0.40;;
10418;SDS011;5256;48.728;9.140;2023-03-21T13:38:57;0.30;;;0.30;;
10418;SDS011;5256;48.728;9.140;2023-03-21T13:41:36;0.30;;;0.30;;
10418;SDS011;5256;48.728;9.140;2023-03-21T13:45:08;0.20;;;0.20;;
10418;SDS011;5256;48.728;9.140;2023-03-21T13:50:29;0.20;;;0.20;;
10418;SDS011;5256;48.728;9.140;2023-03-21T13:55:26;0.40;;;0.40;;
10418;SDS011;5256;48.728;9.140;2023-03-21T13:57:53;0.20;;;0.20;;
10418;SDS011;5256;48.728;9.140;2023-03-21T14:00:29;0.30;;;0.30;;
10418;SDS011;5256;48.728;9.140;2023-03-21T14:03:08;0.40;;;0.40;;
10418;SDS011;5256;48.728;9.140;2023-03-21T14:05:37;0.37;;;0.37;;
10418;SDS011;5256;48.728;9.140;2023-03-21T14:08:04;0.30;;;0.30;;
10418;SDS011;5256;48.728;9.140;2023-03-21T14:10:33;0.30;;;0.30;;
10418;SDS011;5256;48.728;9.140;2023-03-21T14:12:59;0.30;;;0.30;;
10418;SDS011;5256;48.728;9.140;2023-03-21T14:15:31;0.30;;;0.30;;
10418;SDS011;5256;48.728;9.140;2023-03-21T14:18:04;0.30;;;0.30;;
10418;SDS011;5256;48.728;9.140;2023-03-21T14:20:37;0.20;;;0.20;;
10418;SDS011;5256;48.728;9.140;2023-03-21T14:23:04;0.37;;;0.37;;
10418;SDS011;5256;48.728;9.140;2023-03-21T14:25:35;0.30;;;0.30;;
10418;SDS011;5256;48.728;9.140;2023-03-21T14:28:03;0.40;;;0.40;;
10418;SDS011;5256;48.728;9.140;2023-03-21T14:35:49;0.20;;;0.20;;
10418;SDS011;5256;48.728;9.140;2023-03-21T14:38:24;0.40;;;0.40;;
10418;SDS011;5256;48.728;9.140;2023-03-21T14:40:54;0.30;;;0.30;;
10418;SDS011;5256;48.728;9.140;2023-03-21T14:43:22;0.30;;;0.30;;
10418;SDS011;5256;48.728;9.140;2023-03-21T14:45:50;0.30;;;0.30;;
10418;SDS011;5256;48.728;9.140;2023-03-21T14:48:17;0.50;;;0.50;;
10418;SDS011;5256;48.728;9.140;2023-03-21T14:50:50;0.30;;;0.30;;
10418;SDS011;5256;48.728;9.140;2023-03-21T14:53:22;0.40;;;0.40;;
10418;SDS011;5256;48.728;9.140;2023-03-21T14:55:57;0.40;;;0.40;;
10418;SDS011;5256;48.728;9.140;2023-03-21T14:58:26;0.30;;;0.30;;
10418;SDS011;5256;48.728;9.140;2023-03-21T15:00:53;0.30;;;0.30;;
10418;SDS011;5256;48.728;9.140;2023-03-21T15:03:22;0.30;;;0.30;;
10418;SDS011;5256;48.728;9.140;2023-03-21T15:05:51;0.40;;;0.40;;
10418;SDS011;5256;48.728;9.140;2023-03-21T15:08:18;0.40;;;0.40;;
10418;SDS011;5256;48.728;9.140;2023-03-21T15:10:55;0.30;;;0.30;;
10418;SDS011;5256;48.728;9.140;2023-03-21T15:13:22;0.30;;;0.30;;
10418;SDS011;5256;48.728;9.140;2023-03-21T15:15:52;0.20;;;0.20;;
10418;SDS011;5256;48.728;9.140;2023-03-21T15:18:21;0.40;;;0.40;;
10418;SDS011;5256;48.728;9.140;2023-03-21T15:20:51;0.30;;;0.30;;
10418;SDS011;5256;48.728;9.140;2023-03-21T15:23:32;0.40;;;0.40;;
10418;SDS011;5256;48.728;9.140;2023-03-21T15:26:13;0.30;;;0.30;;
10418;SDS011;5256;48.728;9.140;2023-03-21T15:28:40;0.30;;;0.30;;
10418;SDS011;5256;48.728;9.140;2023-03-21T15:31:17;0.30;;;0.30;;
10418;SDS011;5256;48.728;9.140;2023-03-21T15:33:48;0.20;;;0.20;;
10418;SDS011;5256;48.728;9.140;2023-03-21T15:36:22;0.40;;;0.40;;
10418;SDS011;5256;48.728;9.140;2023-03-21T15:38:51;0.40;;;0.40;;
10418;SDS011;5256;48.728;9.140;2023-03-21T15:43:43;0.30;;;0.30;;
10418;SDS011;5256;48.728;9.140;2023-03-21T15:46:14;0.30;;;0.30;;
10418;SDS011;5256;48.728;9.140;2023-03-21T15:48:42;0.30;;;0.30;;
10418;SDS011;5256;48.728;9.140;2023-03-21T15:51:10;0.30;;;0.30;;
10418;SDS011;5256;48.728;9.140;2023-03-21T15:53:45;0.20;;;0.20;;
10418;SDS011;5256;48.728;9.140;2023-03-21T15:56:11;0.30;;;0.30;;
10418;SDS011;5256;48.728;9.140;2023-03-21T15:58:43;0.50;;;0.50;;
10418;SDS011;5256;48.728;9.140;2023-03-21T16:01:15;0.40;;;0.40;;
10418;SDS011;5256;48.728;9.140;2023-03-21T16:03:47;0.40;;;0.40;;
10418;SDS011;5256;48.728;9.140;2023-03-21T16:06:22;0.37;;;0.37;;
10418;SDS011;5256;48.728;9.140;2023-03-21T16:09:03;0.40;;;0.40;;
10418;SDS011;5256;48.728;9.140;2023-03-21T16:11:38;0.43;;;0.43;;
10418;SDS011;5256;48.728;9.140;2023-03-21T16:14:08;0.40;;;0.40;;
10418;SDS011;5256;48.728;9.140;2023-03-21T16:16:34;0.40;;;0.40;;
10418;SDS011;5256;48.728;9.140;2023-03-21T16:19:00;0.40;;;0.40;;
10418;SDS011;5256;48.728;9.140;2023-03-21T16:21:27;0.40;;;0.40;;
10418;SDS011;5256;48.728;9.140;2023-03-21T16:23:54;0.30;;;0.30;;
10418;SDS011;5256;48.728;9.140;2023-03-21T16:26:29;0.40;;;0.40;;
10418;SDS011;5256;48.728;9.140;2023-03-21T16:28:57;0.43;;;0.43;;
10418;SDS011;5256;48.728;9.140;2023-03-21T16:31:23;0.40;;;0.40;;
10418;SDS011;5256;48.728;9.140;2023-03-21T16:33:51;0.30;;;0.30;;
10418;SDS011;5256;48.728;9.140;2023-03-21T16:36:18;0.30;;;0.30;;
10418;SDS011;5256;48.728;9.140;2023-03-21T16:38:46;0.40;;;0.40;;
10418;SDS011;5256;48.728;9.140;2023-03-21T16:41:14;0.30;;;0.30;;
10418;SDS011;5256;48.728;9.140;2023-03-21T16:43:41;0.40;;;0.40;;
10418;SDS011;5256;48.728;9.140;2023-03-21T16:46:11;0.40;;;0.40;;
10418;SDS011;5256;48.728;9.140;2023-03-21T16:48:48;0.40;;;0.40;;
10418;SDS011;5256;48.728;9.140;2023-03-21T16:51:17;0.30;;;0.30;;
10418;SDS011;5256;48.728;9.140;2023-03-21T16:53:46;0.40;;;0.40;;
10418;SDS011;5256;48.728;9.140;2023-03-21T16:56:22;0.30;;;0.30;;
10418;SDS011;5256;48.728;9.140;2023-03-21T16:58:57;0.40;;;0.40;;
10418;SDS011;5256;48.728;9.140;2023-03-21T17:01:23;0.40;;;0.40;;